createdAt,value
2022-09-17T00:01:41.300Z,10.26
2022-09-17T00:04:11.080Z,10.27
2022-09-17T00:06:39.395Z,10.35
2022-09-17T00:09:08.903Z,10.40
2022-09-17T00:11:40.638Z,10.45
2022-09-17T00:14:13.479Z,10.40
2022-09-17T00:16:43.930Z,10.41
2022-09-17T00:19:15.730Z,10.35
2022-09-17T00:21:44.393Z,10.31
2022-09-17T00:24:14.875Z,10.27
2022-09-17T00:26:44.740Z,10.30
2022-09-17T00:29:13.154Z,10.23
2022-09-17T00:31:41.804Z,10.24
2022-09-17T00:34:11.883Z,10.25
2022-09-17T00:36:41.336Z,10.26
2022-09-17T00:39:12.704Z,10.33
2022-09-17T00:41:41.185Z,10.30
2022-09-17T00:44:44.348Z,10.39
2022-09-17T00:47:17.203Z,10.42
2022-09-17T00:49:46.531Z,10.48
2022-09-17T00:52:17.650Z,10.48
2022-09-17T00:54:52.589Z,10.48
2022-09-17T00:57:21.056Z,10.50
2022-09-17T00:59:50.932Z,10.50
2022-09-17T01:02:21.176Z,10.45
2022-09-17T01:04:49.553Z,10.43
2022-09-17T01:07:33.326Z,10.44
2022-09-17T01:10:11.627Z,10.40
2022-09-17T01:12:57.917Z,10.44
2022-09-17T01:15:44.646Z,10.48
2022-09-17T01:18:31.039Z,10.51
2022-09-17T01:21:26.203Z,10.54
2022-09-17T01:24:24.155Z,10.52
2022-09-17T01:27:25.328Z,10.41
2022-09-17T01:30:27.087Z,10.49
2022-09-17T01:33:05.202Z,10.41
2022-09-17T01:35:39.027Z,10.49
2022-09-17T01:38:14.463Z,10.53
2022-09-17T01:40:50.981Z,10.52
2022-09-17T01:43:24.465Z,10.55
2022-09-17T01:45:58.791Z,10.53
2022-09-17T01:48:30.787Z,10.56
2022-09-17T01:51:05.988Z,10.53
2022-09-17T01:53:40.964Z,10.58
2022-09-17T01:56:11.886Z,10.50
2022-09-17T01:58:44.874Z,10.52
2022-09-17T02:01:18.372Z,10.51
2022-09-17T02:03:53.558Z,10.49
2022-09-17T02:06:27.227Z,10.50
2022-09-17T02:08:59.408Z,10.49
2022-09-17T02:11:27.795Z,10.53
2022-09-17T02:14:00.262Z,10.53
2022-09-17T02:16:33.642Z,10.49
2022-09-17T02:19:06.991Z,10.49
2022-09-17T02:21:42.125Z,10.45
2022-09-17T02:24:18.472Z,10.46
2022-09-17T02:26:52.171Z,10.39
2022-09-17T02:29:27.787Z,10.27
2022-09-17T02:31:57.408Z,10.12
2022-09-17T02:34:27.575Z,10.11
2022-09-17T02:36:56.358Z,10.08
2022-09-17T02:39:24.636Z,10.00
2022-09-17T02:41:57.792Z,9.94
2022-09-17T02:44:33.974Z,9.86
2022-09-17T02:47:30.206Z,9.74
2022-09-17T02:50:23.432Z,9.70
2022-09-17T02:53:05.788Z,9.68
2022-09-17T02:55:42.360Z,9.67
2022-09-17T02:58:22.569Z,9.52
2022-09-17T03:00:51.193Z,9.55
2022-09-17T03:03:29.428Z,9.54
2022-09-17T03:05:58.241Z,9.50
2022-09-17T03:08:30.352Z,9.45
2022-09-17T03:10:58.607Z,9.51
2022-09-17T03:13:27.074Z,9.47
2022-09-17T03:15:55.515Z,9.49
2022-09-17T03:18:25.557Z,9.47
2022-09-17T03:20:53.778Z,9.47
2022-09-17T03:23:22.042Z,9.49
2022-09-17T03:25:50.636Z,9.46
2022-09-17T03:28:19.218Z,9.46
2022-09-17T03:30:48.205Z,9.40
2022-09-17T03:33:16.542Z,9.41
2022-09-17T03:35:46.532Z,9.40
2022-09-17T03:38:15.122Z,9.32
2022-09-17T03:40:43.505Z,9.23
2022-09-17T03:43:12.261Z,9.19
2022-09-17T03:45:40.442Z,9.15
2022-09-17T03:48:08.656Z,9.18
2022-09-17T03:50:37.073Z,9.17
2022-09-17T03:53:06.687Z,9.11
2022-09-17T03:55:34.984Z,9.14
2022-09-17T03:58:03.237Z,9.18
2022-09-17T04:00:32.066Z,9.11
2022-09-17T04:03:00.458Z,9.20
2022-09-17T04:05:28.736Z,9.27
2022-09-17T04:07:57.072Z,9.27
2022-09-17T04:10:26.772Z,9.19
2022-09-17T04:12:54.998Z,9.07
2022-09-17T04:15:23.318Z,9.12
2022-09-17T04:17:51.594Z,9.04
2022-09-17T04:20:19.989Z,8.98
2022-09-17T04:22:48.209Z,8.92
2022-09-17T04:25:16.616Z,8.89
2022-09-17T04:27:47.677Z,8.85
2022-09-17T04:30:16.870Z,8.77
2022-09-17T04:32:46.392Z,8.82
2022-09-17T04:35:14.702Z,8.81
2022-09-17T04:37:42.933Z,8.80
2022-09-17T04:40:12.070Z,8.91
2022-09-17T04:42:40.381Z,8.76
2022-09-17T04:45:10.897Z,8.82
2022-09-17T04:47:40.432Z,8.87
2022-09-17T04:50:09.308Z,8.86
2022-09-17T04:52:37.593Z,8.92
2022-09-17T04:55:06.689Z,8.92
2022-09-17T04:57:34.959Z,9.01
2022-09-17T05:00:03.471Z,9.18
2022-09-17T05:02:33.249Z,9.17
2022-09-17T05:05:01.638Z,9.30
2022-09-17T05:07:29.994Z,9.33
2022-09-17T05:09:58.190Z,9.41
2022-09-17T05:12:29.222Z,9.49
2022-09-17T05:14:59.570Z,9.49
2022-09-17T05:17:27.878Z,9.60
2022-09-17T05:19:57.633Z,9.68
2022-09-17T05:22:25.926Z,9.74
2022-09-17T05:24:54.135Z,9.67
2022-09-17T05:27:22.500Z,9.61
2022-09-17T05:29:50.956Z,9.64
2022-09-17T05:32:19.349Z,9.64
2022-09-17T05:34:47.654Z,9.68
2022-09-17T05:37:17.262Z,9.67
2022-09-17T05:39:45.757Z,9.71
2022-09-17T05:42:14.038Z,9.77
2022-09-17T05:44:42.257Z,9.77
2022-09-17T05:47:10.997Z,9.77
2022-09-17T05:49:39.197Z,9.77
2022-09-17T05:52:09.873Z,9.82
2022-09-17T05:54:39.528Z,9.88
2022-09-17T05:57:07.833Z,9.93
2022-09-17T05:59:36.312Z,10.00
2022-09-17T06:02:05.341Z,10.08
2022-09-17T06:04:35.080Z,10.08
2022-09-17T06:07:06.107Z,10.16
2022-09-17T06:09:36.253Z,10.23
2022-09-17T06:12:06.954Z,10.31
2022-09-17T06:14:35.259Z,10.40
2022-09-17T06:17:03.641Z,10.49
2022-09-17T06:19:31.857Z,10.53
2022-09-17T06:22:00.117Z,10.62
2022-09-17T06:24:28.494Z,10.77
2022-09-17T06:26:56.782Z,10.84
2022-09-17T06:29:27.724Z,10.89
2022-09-17T06:31:56.006Z,10.92
2022-09-17T06:34:24.395Z,10.84
2022-09-17T06:36:52.679Z,10.79
2022-09-17T06:39:21.209Z,10.80
2022-09-17T06:41:49.417Z,10.83
2022-09-17T06:44:17.792Z,10.83
2022-09-17T06:46:51.261Z,10.92
2022-09-17T06:49:19.587Z,10.92
2022-09-17T06:51:47.917Z,10.98
2022-09-17T06:54:18.582Z,11.01
2022-09-17T06:56:47.892Z,10.96
2022-09-17T06:59:16.425Z,11.05
2022-09-17T07:01:44.874Z,11.05
2022-09-17T07:04:14.746Z,11.10
2022-09-17T07:06:44.775Z,11.04
2022-09-17T07:09:13.649Z,11.05
2022-09-17T07:11:41.940Z,11.13
2022-09-17T07:14:10.176Z,11.26
2022-09-17T07:16:38.617Z,11.34
2022-09-17T07:19:08.291Z,11.56
2022-09-17T07:21:38.732Z,11.69
2022-09-17T07:24:07.417Z,11.57
2022-09-17T07:26:35.648Z,11.39
2022-09-17T07:29:03.881Z,11.23
2022-09-17T07:31:32.402Z,11.22
2022-09-17T07:34:01.757Z,11.16
2022-09-17T07:36:30.123Z,11.14
2022-09-17T07:38:59.739Z,11.29
2022-09-17T07:41:28.027Z,11.32
2022-09-17T07:43:56.417Z,11.24
2022-09-17T07:46:24.685Z,11.11
2022-09-17T07:48:52.982Z,11.03
2022-09-17T07:51:23.267Z,11.05
2022-09-17T07:53:52.891Z,11.15
2022-09-17T07:56:23.292Z,11.15
2022-09-17T07:58:52.019Z,11.33
2022-09-17T08:01:22.748Z,11.41
2022-09-17T08:03:53.241Z,11.57
2022-09-17T08:06:23.333Z,11.58
2022-09-17T08:08:51.611Z,11.52
2022-09-17T08:11:44.708Z,11.47
2022-09-17T08:14:12.730Z,11.39
2022-09-17T08:16:41.155Z,11.40
2022-09-17T08:19:11.037Z,11.57
2022-09-17T08:21:39.681Z,11.78
2022-09-17T08:24:08.256Z,11.91
2022-09-17T08:26:38.416Z,12.06
2022-09-17T08:29:07.448Z,11.89
2022-09-17T08:31:36.030Z,11.82
2022-09-17T08:34:08.757Z,11.82
2022-09-17T08:36:37.376Z,11.78
2022-09-17T08:39:05.829Z,11.73
2022-09-17T08:41:51.213Z,12.06
2022-09-17T08:44:26.089Z,12.25
2022-09-17T08:47:00.376Z,12.26
2022-09-17T08:49:36.208Z,12.38
2022-09-17T08:52:32.609Z,12.65
2022-09-17T08:55:11.314Z,12.92
2022-09-17T08:57:47.927Z,13.11
2022-09-17T09:00:18.881Z,13.25
2022-09-17T09:03:04.191Z,12.94
2022-09-17T09:05:39.682Z,12.76
2022-09-17T09:08:15.926Z,12.65
2022-09-17T09:10:49.003Z,12.33
2022-09-17T09:13:23.063Z,12.13
2022-09-17T09:15:56.476Z,12.03
2022-09-17T09:18:28.318Z,12.02
2022-09-17T09:21:09.092Z,12.04
2022-09-17T09:23:45.568Z,12.16
2022-09-17T09:26:21.355Z,12.19
2022-09-17T09:29:05.803Z,12.10
2022-09-17T09:31:55.463Z,12.15
2022-09-17T09:34:24.976Z,12.43
2022-09-17T09:36:53.413Z,12.72
2022-09-17T09:39:25.725Z,12.91
2022-09-17T09:42:00.349Z,12.79
2022-09-17T09:44:30.080Z,12.53
2022-09-17T09:47:20.554Z,12.25
2022-09-17T09:50:04.289Z,12.10
2022-09-17T09:52:44.294Z,11.92
2022-09-17T09:55:29.685Z,11.85
2022-09-17T09:58:04.691Z,11.85
2022-09-17T10:00:38.379Z,11.83
2022-09-17T10:03:14.487Z,12.00
2022-09-17T10:05:54.528Z,12.22
2022-09-17T10:08:23.191Z,12.67
2022-09-17T10:11:01.001Z,12.75
2022-09-17T10:13:31.290Z,12.93
2022-09-17T10:16:17.914Z,12.81
2022-09-17T10:18:46.858Z,13.00
2022-09-17T10:21:21.384Z,13.08
2022-09-17T10:23:52.422Z,13.07
2022-09-17T10:26:27.171Z,12.93
2022-09-17T10:28:57.337Z,12.64
2022-09-17T10:31:28.361Z,12.64
2022-09-17T10:34:02.730Z,12.50
2022-09-17T10:36:41.048Z,12.36
2022-09-17T10:39:21.610Z,12.13
2022-09-17T10:41:55.722Z,11.98
2022-09-17T10:44:25.672Z,11.82
2022-09-17T10:46:56.061Z,11.81
2022-09-17T10:49:43.878Z,11.88
2022-09-17T10:52:19.406Z,12.00
2022-09-17T10:55:13.632Z,12.20
2022-09-17T10:58:04.240Z,12.35
2022-09-17T11:00:45.255Z,12.65
2022-09-17T11:03:46.669Z,12.82
2022-09-17T11:06:50.412Z,12.93
2022-09-17T11:09:29.410Z,13.15
2022-09-17T11:12:16.606Z,13.58
2022-09-17T11:14:52.866Z,14.21
2022-09-17T11:17:36.383Z,14.09
2022-09-17T11:20:13.619Z,13.93
2022-09-17T11:22:52.110Z,13.37
2022-09-17T11:25:37.513Z,13.47
2022-09-17T11:28:19.791Z,13.48
2022-09-17T11:31:00.697Z,13.96
2022-09-17T11:33:43.681Z,14.04
2022-09-17T11:36:18.957Z,14.49
2022-09-17T11:38:51.338Z,14.73
2022-09-17T11:41:23.328Z,14.84
2022-09-17T11:44:01.059Z,14.68
2022-09-17T11:46:34.677Z,14.65
2022-09-17T11:49:06.436Z,14.86
2022-09-17T11:51:39.480Z,15.32
2022-09-17T11:54:16.897Z,15.51
2022-09-17T11:56:46.846Z,16.02
2022-09-17T11:59:21.376Z,15.58
2022-09-17T12:01:54.000Z,14.87
2022-09-17T12:04:40.701Z,13.66
2022-09-17T12:07:23.159Z,12.62
2022-09-17T12:09:56.466Z,12.36
2022-09-17T12:12:48.487Z,12.26
2022-09-17T12:15:21.642Z,12.34
2022-09-17T12:18:20.663Z,12.85
2022-09-17T12:20:50.744Z,13.36
2022-09-17T12:23:28.229Z,13.95
2022-09-17T12:26:07.446Z,14.18
2022-09-17T12:28:43.386Z,14.28
2022-09-17T12:31:19.038Z,14.60
2022-09-17T12:33:51.338Z,14.87
2022-09-17T12:36:32.097Z,15.48
2022-09-17T12:39:36.959Z,15.53
2022-09-17T12:42:15.467Z,15.65
2022-09-17T12:45:18.210Z,15.29
2022-09-17T12:48:12.663Z,15.57
2022-09-17T12:50:52.776Z,15.06
2022-09-17T12:53:28.941Z,15.48
2022-09-17T12:56:25.252Z,15.51
2022-09-17T12:59:08.711Z,15.16
2022-09-17T13:01:45.289Z,15.15
2022-09-17T13:04:38.343Z,14.68
2022-09-17T13:07:38.182Z,14.96
2022-09-17T13:10:40.283Z,15.14
2022-09-17T13:13:31.734Z,15.23
2022-09-17T13:16:13.334Z,14.82
2022-09-17T13:19:14.911Z,14.64
2022-09-17T13:21:50.318Z,14.25
2022-09-17T13:24:21.630Z,14.19
2022-09-17T13:26:50.423Z,14.43
2022-09-17T13:29:52.056Z,14.77
2022-09-17T13:32:52.950Z,14.84
2022-09-17T13:35:52.679Z,14.42
2022-09-17T13:38:24.376Z,14.22
2022-09-17T13:40:54.552Z,13.96
2022-09-17T13:43:28.093Z,13.76
2022-09-17T13:46:24.498Z,13.63
2022-09-17T13:48:59.567Z,13.73
2022-09-17T13:51:50.923Z,13.80
2022-09-17T13:54:22.170Z,13.76
2022-09-17T13:57:08.678Z,13.51
2022-09-17T13:59:38.331Z,13.83
2022-09-17T14:02:36.470Z,13.92
2022-09-17T14:05:33.611Z,14.36
2022-09-17T14:08:27.875Z,14.10
2022-09-17T14:10:58.345Z,14.15
2022-09-17T14:13:30.236Z,14.18
2022-09-17T14:16:02.880Z,14.05
2022-09-17T14:18:43.338Z,14.05
2022-09-17T14:21:22.158Z,14.22
2022-09-17T14:23:56.062Z,14.28
2022-09-17T14:26:36.884Z,14.21
2022-09-17T14:29:14.015Z,14.18
2022-09-17T14:31:42.908Z,14.75
2022-09-17T14:34:23.109Z,15.04
2022-09-17T14:36:55.234Z,14.82
2022-09-17T14:39:26.472Z,14.69
2022-09-17T14:41:56.411Z,15.89
2022-09-17T14:44:32.944Z,16.33
2022-09-17T14:47:04.392Z,15.66
2022-09-17T14:49:37.102Z,15.75
2022-09-17T14:52:25.333Z,16.62
2022-09-17T14:55:17.779Z,16.91
2022-09-17T14:57:47.960Z,15.49
2022-09-17T15:00:23.049Z,14.91
2022-09-17T15:02:54.365Z,14.43
2022-09-17T15:05:27.195Z,14.22
2022-09-17T15:08:16.698Z,14.40
2022-09-17T15:10:50.679Z,14.43
2022-09-17T15:13:22.602Z,14.99
2022-09-17T15:16:23.263Z,15.77
2022-09-17T15:18:54.504Z,17.66
2022-09-17T15:21:30.956Z,18.49
2022-09-17T15:24:09.085Z,17.45
2022-09-17T15:26:42.880Z,16.37
2022-09-17T15:29:13.307Z,15.85
2022-09-17T15:31:42.290Z,16.65
2022-09-17T15:34:12.735Z,16.77
2022-09-17T15:36:41.001Z,17.29
2022-09-17T15:39:34.492Z,17.23
2022-09-17T15:42:02.769Z,16.64
2022-09-17T15:44:32.044Z,16.52
2022-09-17T15:47:52.299Z,15.45
2022-09-17T15:50:22.770Z,14.78
2022-09-17T15:52:52.156Z,14.51
2022-09-17T15:55:36.805Z,14.60
2022-09-17T15:58:07.033Z,14.59
2022-09-17T16:00:35.517Z,14.51
2022-09-17T16:04:02.029Z,14.42
2022-09-17T16:06:39.633Z,14.41
2022-09-17T16:09:39.295Z,14.11
2022-09-17T16:12:11.987Z,14.18
2022-09-17T16:14:43.580Z,14.12
2022-09-17T16:17:28.158Z,13.96
2022-09-17T16:19:57.210Z,13.80
2022-09-17T16:22:26.409Z,13.62
2022-09-17T16:24:54.791Z,13.26
2022-09-17T16:27:28.232Z,13.07
2022-09-17T16:30:03.732Z,12.93
2022-09-17T16:32:32.067Z,13.07
2022-09-17T16:35:00.695Z,12.88
2022-09-17T16:37:29.233Z,12.85
2022-09-17T16:39:57.546Z,12.77
2022-09-17T16:42:27.308Z,12.72
2022-09-17T16:44:55.682Z,12.65
2022-09-17T16:47:24.122Z,12.70
2022-09-17T16:49:52.361Z,12.87
2022-09-17T16:52:20.664Z,12.78
2022-09-17T16:54:48.961Z,12.74
2022-09-17T16:57:17.361Z,12.77
2022-09-17T16:59:46.982Z,12.84
2022-09-17T17:02:15.352Z,12.73
2022-09-17T17:04:43.673Z,12.77
2022-09-17T17:07:11.956Z,12.76
2022-09-17T17:09:40.262Z,12.74
2022-09-17T17:12:09.295Z,12.67
2022-09-17T17:14:39.886Z,12.70
2022-09-17T17:17:09.570Z,12.66
2022-09-17T17:19:37.918Z,12.58
2022-09-17T17:22:06.931Z,12.35
2022-09-17T17:24:35.230Z,12.13
2022-09-17T17:27:03.941Z,12.00
2022-09-17T17:29:32.215Z,11.88
2022-09-17T17:32:03.184Z,11.74
2022-09-17T17:34:33.333Z,11.72
2022-09-17T17:37:01.931Z,11.68
2022-09-17T17:39:30.267Z,11.67
2022-09-17T17:41:59.109Z,11.67
2022-09-17T17:44:27.447Z,11.68
2022-09-17T17:46:55.972Z,11.67
2022-09-17T17:49:24.374Z,11.61
2022-09-17T17:51:54.508Z,11.59
2022-09-17T17:54:22.884Z,11.57
2022-09-17T17:56:51.351Z,11.48
2022-09-17T17:59:19.945Z,11.53
2022-09-17T18:01:48.292Z,11.57
2022-09-17T18:04:16.896Z,11.57
2022-09-17T18:06:48.079Z,11.58
2022-09-17T18:09:17.920Z,11.57
2022-09-17T18:11:46.300Z,11.49
2022-09-17T18:14:15.040Z,11.55
2022-09-17T18:16:43.278Z,11.63
2022-09-17T18:19:12.330Z,11.63
2022-09-17T18:21:40.907Z,11.64
2022-09-17T18:24:09.161Z,11.62
2022-09-17T18:26:38.824Z,11.67
2022-09-17T18:29:08.315Z,11.56
2022-09-17T18:31:38.019Z,11.52
2022-09-17T18:34:10.655Z,11.49
2022-09-17T18:36:40.591Z,11.47
2022-09-17T18:42:03.139Z,11.41
2022-09-17T18:44:31.390Z,11.40
2022-09-17T18:46:59.762Z,11.41
2022-09-17T18:49:28.178Z,11.47
2022-09-17T18:51:56.597Z,11.53
2022-09-17T18:54:25.084Z,11.47
2022-09-17T18:56:53.434Z,11.48
2022-09-17T18:59:23.115Z,11.52
2022-09-17T19:01:51.484Z,11.53
2022-09-17T19:04:19.891Z,11.52
2022-09-17T19:06:48.167Z,11.39
2022-09-17T19:09:16.462Z,11.45
2022-09-17T19:11:44.722Z,11.38
2022-09-17T19:14:13.105Z,11.39
2022-09-17T19:16:42.998Z,11.39
2022-09-17T19:19:11.620Z,11.36
2022-09-17T19:21:39.881Z,11.37
2022-09-17T19:24:08.622Z,11.43
2022-09-17T19:26:37.079Z,11.44
2022-09-17T19:29:06.371Z,11.47
2022-09-17T19:31:34.865Z,11.56
2022-09-17T19:34:04.960Z,11.51
2022-09-17T19:36:33.326Z,11.53
2022-09-17T19:39:01.600Z,11.53
2022-09-17T19:41:32.031Z,11.60
2022-09-17T19:44:00.345Z,11.55
2022-09-17T19:46:29.867Z,11.56
2022-09-17T19:48:58.971Z,11.55
2022-09-17T19:51:29.873Z,11.57
2022-09-17T19:53:58.665Z,11.55
2022-09-17T19:56:28.519Z,11.61
2022-09-17T19:58:57.720Z,11.53
2022-09-17T20:01:26.470Z,11.58
2022-09-17T20:03:54.749Z,11.60
2022-09-17T20:06:23.993Z,11.59
2022-09-17T20:08:55.343Z,11.57
2022-09-17T20:11:25.599Z,11.53
2022-09-17T20:13:58.451Z,11.56
2022-09-17T20:16:27.340Z,11.57
2022-09-17T20:18:56.067Z,11.54
2022-09-17T20:21:27.871Z,11.53
2022-09-17T20:23:58.010Z,11.46
2022-09-17T20:26:27.411Z,11.48
2022-09-17T20:28:56.469Z,11.48
2022-09-17T20:31:26.747Z,11.51
2022-09-17T20:33:56.483Z,11.46
2022-09-17T20:36:27.531Z,11.45
2022-09-17T20:39:16.811Z,11.53
2022-09-17T20:41:45.702Z,11.48
2022-09-17T20:44:13.990Z,11.56
2022-09-17T20:46:42.360Z,11.57
2022-09-17T20:49:10.773Z,11.63
2022-09-17T20:51:39.100Z,11.54
2022-09-17T20:54:09.555Z,11.49
2022-09-17T20:56:38.080Z,11.47
2022-09-17T20:59:14.378Z,11.48
2022-09-17T21:01:45.040Z,11.43
2022-09-17T21:04:16.180Z,11.43
2022-09-17T21:06:45.704Z,11.45
2022-09-17T21:09:16.855Z,11.47
2022-09-17T21:11:46.887Z,11.52
2022-09-17T21:14:17.469Z,11.48
2022-09-17T21:16:46.509Z,11.51
2022-09-17T21:19:16.526Z,11.53
2022-09-17T21:21:45.299Z,11.51
2022-09-17T21:24:14.960Z,11.52
2022-09-17T21:26:45.079Z,11.58
2022-09-17T21:29:13.413Z,11.52
2022-09-17T21:31:41.991Z,11.49
2022-09-17T21:34:12.910Z,11.53
2022-09-17T21:36:44.443Z,11.59
2022-09-17T21:39:15.756Z,11.60
2022-09-17T21:41:44.822Z,11.59
2022-09-17T21:44:13.611Z,11.64
2022-09-17T21:46:43.292Z,11.56
2022-09-17T21:49:13.419Z,11.55
2022-09-17T21:51:43.159Z,11.57
2022-09-17T21:54:13.775Z,11.61
2022-09-17T21:56:43.789Z,11.59
2022-09-17T21:59:14.534Z,11.57
2022-09-17T22:01:46.592Z,11.59
2022-09-17T22:04:17.308Z,11.63
2022-09-17T22:06:46.679Z,11.57
2022-09-17T22:09:17.748Z,11.57
2022-09-17T22:11:47.702Z,11.56
2022-09-17T22:14:19.458Z,11.60
2022-09-17T22:16:50.653Z,11.52
2022-09-17T22:19:20.410Z,11.58
2022-09-17T22:21:51.413Z,11.57
2022-09-17T22:24:21.413Z,11.54
2022-09-17T22:26:56.970Z,11.57
2022-09-17T22:29:28.197Z,11.56
2022-09-17T22:31:57.281Z,11.55
2022-09-17T22:34:26.577Z,11.56
2022-09-17T22:36:55.215Z,11.58
2022-09-17T22:39:24.374Z,11.67
2022-09-17T22:41:54.268Z,11.53
2022-09-17T22:44:22.677Z,11.64
2022-09-17T22:46:52.648Z,11.56
2022-09-17T22:49:21.422Z,11.53
2022-09-17T22:51:49.929Z,11.51
2022-09-17T22:54:19.791Z,11.58
2022-09-17T22:56:48.912Z,11.53
2022-09-17T22:59:19.385Z,11.48
2022-09-17T23:01:47.886Z,11.44
2022-09-17T23:04:16.237Z,11.45
2022-09-17T23:06:44.521Z,11.44
2022-09-17T23:09:13.774Z,11.44
2022-09-17T23:11:44.498Z,11.44
2022-09-17T23:14:16.953Z,11.46
2022-09-17T23:16:48.437Z,11.41
2022-09-17T23:19:18.883Z,11.43
2022-09-17T23:21:47.747Z,11.43
2022-09-17T23:24:20.289Z,11.36
2022-09-17T23:26:48.960Z,11.34
2022-09-17T23:29:17.736Z,11.40
2022-09-17T23:31:47.529Z,11.38
2022-09-17T23:34:15.872Z,11.40
2022-09-17T23:36:44.829Z,11.40
2022-09-17T23:39:13.421Z,11.42
2022-09-17T23:41:45.552Z,11.40
2022-09-17T23:44:16.086Z,11.38
2022-09-17T23:46:48.463Z,11.43
2022-09-17T23:49:18.159Z,11.41
2022-09-17T23:51:46.806Z,11.44
2022-09-17T23:54:15.458Z,11.43
2022-09-17T23:56:43.830Z,11.38
2022-09-17T23:59:12.957Z,11.37
